AFR84TL LFPG-LFLL
Flight info
| Callsign | AFR84TL |
|---|---|
| Flight time | 0h 45m |
| Altitude | 27000 |
| Route | OKASI DCT OKEKO DCT OKEPI DCT MOU/N0361F190 A3 FEDZI |
| Aircraft | A333/H-SDE3GHIJ2J3J5M1RVWXY/LB2D1 |
Departure
| Time | 2026-05-05 19:17 |
|---|---|
| Airport | Charles de Gaulle International Airport (LFPG) |
Arrival
| Time | 2026-05-05 20:02 |
|---|---|
| Airport | Lyon Saint-Exupéry Airport (LFLL) |
| Time | Latitude | Longitude | Altitude | Speed | Heading |
|---|---|---|---|---|---|
| 2026-05-05 18:50 | 49.00126 | 2.57526 | 358 ft | 0 kts | 358° |
| 2026-05-05 19:02 | 49.00110 | 2.57527 | 362 ft | 3 kts | 358° |
| 2026-05-05 19:03 | 49.00092 | 2.57528 | 358 ft | 3 kts | 358° |
| 2026-05-05 19:03 | 49.00074 | 2.57526 | 360 ft | 3 kts | 6° |
| 2026-05-05 19:03 | 49.00056 | 2.57518 | 367 ft | 3 kts | 47° |
| 2026-05-05 19:03 | 49.00047 | 2.57498 | 364 ft | 0 kts | 88° |
| 2026-05-05 19:07 | 49.00047 | 2.57520 | 367 ft | 13 kts | 86° |
| 2026-05-05 19:07 | 49.00056 | 2.57672 | 363 ft | 6 kts | 86° |
| 2026-05-05 19:08 | 49.00059 | 2.57733 | 366 ft | 18 kts | 84° |
| 2026-05-05 19:08 | 49.00068 | 2.57889 | 362 ft | 12 kts | 85° |
| 2026-05-05 19:08 | 49.00074 | 2.58005 | 366 ft | 10 kts | 85° |
| 2026-05-05 19:08 | 49.00080 | 2.58099 | 363 ft | 8 kts | 84° |
| 2026-05-05 19:09 | 49.00085 | 2.58185 | 363 ft | 16 kts | 85° |
| 2026-05-05 19:09 | 49.00053 | 2.58307 | 364 ft | 11 kts | 166° |
| 2026-05-05 19:09 | 49.00012 | 2.58258 | 362 ft | 9 kts | 248° |
| 2026-05-05 19:09 | 49.00001 | 2.58101 | 365 ft | 15 kts | 265° |
| 2026-05-05 19:10 | 48.99992 | 2.57927 | 363 ft | 18 kts | 266° |
| 2026-05-05 19:10 | 48.99984 | 2.57752 | 363 ft | 15 kts | 265° |
| 2026-05-05 19:10 | 48.99976 | 2.57599 | 364 ft | 14 kts | 265° |
| 2026-05-05 19:10 | 48.99965 | 2.57407 | 358 ft | 20 kts | 265° |
| 2026-05-05 19:11 | 48.99952 | 2.57174 | 363 ft | 23 kts | 265° |
| 2026-05-05 19:11 | 48.99940 | 2.56944 | 361 ft | 21 kts | 265° |
| 2026-05-05 19:11 | 48.99929 | 2.56741 | 364 ft | 18 kts | 265° |
| 2026-05-05 19:11 | 48.99918 | 2.56547 | 366 ft | 20 kts | 265° |
| 2026-05-05 19:12 | 48.99907 | 2.56353 | 361 ft | 17 kts | 266° |
| 2026-05-05 19:12 | 48.99899 | 2.56168 | 361 ft | 16 kts | 266° |
| 2026-05-05 19:12 | 48.99893 | 2.56006 | 358 ft | 16 kts | 270° |
| 2026-05-05 19:12 | 48.99897 | 2.55848 | 362 ft | 9 kts | 250° |
| 2026-05-05 19:13 | 48.99828 | 2.55801 | 366 ft | 13 kts | 178° |
| 2026-05-05 19:13 | 48.99746 | 2.55806 | 363 ft | 11 kts | 175° |
| 2026-05-05 19:13 | 48.99708 | 2.55813 | 362 ft | 0 kts | 173° |
| 2026-05-05 19:14 | 48.99700 | 2.55814 | 359 ft | 8 kts | 174° |
| 2026-05-05 19:14 | 48.99624 | 2.55822 | 362 ft | 10 kts | 163° |
| 2026-05-05 19:14 | 48.99606 | 2.55858 | 362 ft | 9 kts | 111° |
| 2026-05-05 19:14 | 48.99603 | 2.55881 | 363 ft | 0 kts | 91° |
| 2026-05-05 19:16 | 48.99604 | 2.55883 | 363 ft | 2 kts | 90° |
| 2026-05-05 19:16 | 48.99618 | 2.56201 | 362 ft | 63 kts | 85° |
| 2026-05-05 19:16 | 48.99672 | 2.57179 | 364 ft | 121 kts | 84° |
| 2026-05-05 19:16 | 48.99739 | 2.58672 | 541 ft | 153 kts | 83° |
| 2026-05-05 19:17 | 48.99791 | 2.60307 | 1253 ft | 153 kts | 82° |
| 2026-05-05 19:17 | 48.99867 | 2.61903 | 2057 ft | 154 kts | 80° |
| 2026-05-05 19:17 | 48.99970 | 2.63728 | 2352 ft | 189 kts | 80° |
| 2026-05-05 19:17 | 49.00115 | 2.65862 | 2814 ft | 216 kts | 82° |
| 2026-05-05 19:18 | 49.00263 | 2.68284 | 3223 ft | 242 kts | 83° |
| 2026-05-05 19:18 | 49.00406 | 2.70908 | 3974 ft | 253 kts | 84° |
| 2026-05-05 19:18 | 49.00545 | 2.73629 | 4841 ft | 261 kts | 84° |
| 2026-05-05 19:18 | 49.00680 | 2.76418 | 5750 ft | 267 kts | 86° |
| 2026-05-05 19:19 | 49.00597 | 2.79266 | 6690 ft | 272 kts | 96° |
| 2026-05-05 19:19 | 49.00326 | 2.82129 | 7652 ft | 275 kts | 99° |
| 2026-05-05 19:19 | 49.00014 | 2.85019 | 8659 ft | 279 kts | 100° |
| 2026-05-05 19:19 | 48.99691 | 2.87989 | 9678 ft | 283 kts | 101° |
| 2026-05-05 19:20 | 48.99369 | 2.90961 | 10345 ft | 297 kts | 101° |
| 2026-05-05 19:20 | 48.99019 | 2.94185 | 10767 ft | 319 kts | 101° |
| 2026-05-05 19:20 | 48.98445 | 2.97494 | 11408 ft | 328 kts | 115° |
| 2026-05-05 19:20 | 48.97129 | 3.00323 | 12180 ft | 332 kts | 140° |
| 2026-05-05 19:21 | 48.95126 | 3.02033 | 13002 ft | 334 kts | 166° |
| 2026-05-05 19:21 | 48.92822 | 3.02258 | 13784 ft | 336 kts | 190° |
| 2026-05-05 19:21 | 48.90591 | 3.01033 | 14138 ft | 351 kts | 210° |
| 2026-05-05 19:21 | 48.88478 | 2.99036 | 14566 ft | 363 kts | 214° |
| 2026-05-05 19:22 | 48.86350 | 2.96896 | 15159 ft | 370 kts | 214° |
| 2026-05-05 19:22 | 48.84187 | 2.94745 | 15821 ft | 374 kts | 213° |
| 2026-05-05 19:22 | 48.81981 | 2.92583 | 16404 ft | 381 kts | 212° |
| 2026-05-05 19:22 | 48.79729 | 2.90400 | 16987 ft | 387 kts | 212° |
| 2026-05-05 19:23 | 48.77447 | 2.88201 | 17610 ft | 391 kts | 212° |
| 2026-05-05 19:23 | 48.75139 | 2.85986 | 18241 ft | 394 kts | 212° |
| 2026-05-05 19:23 | 48.72807 | 2.83755 | 18708 ft | 400 kts | 212° |
| 2026-05-05 19:23 | 48.70432 | 2.81486 | 19154 ft | 406 kts | 211° |
| 2026-05-05 19:24 | 48.68025 | 2.79191 | 19657 ft | 411 kts | 211° |
| 2026-05-05 19:24 | 48.65598 | 2.76879 | 20160 ft | 415 kts | 211° |
| 2026-05-05 19:24 | 48.63140 | 2.74541 | 20631 ft | 419 kts | 211° |
| 2026-05-05 19:24 | 48.60659 | 2.72184 | 21088 ft | 424 kts | 211° |
| 2026-05-05 19:25 | 48.58147 | 2.69801 | 21536 ft | 429 kts | 211° |
| 2026-05-05 19:25 | 48.55606 | 2.67393 | 21966 ft | 433 kts | 211° |
| 2026-05-05 19:25 | 48.53039 | 2.64963 | 22372 ft | 438 kts | 211° |
| 2026-05-05 19:25 | 48.50388 | 2.62664 | 22797 ft | 441 kts | 203° |
| 2026-05-05 19:26 | 48.47449 | 2.61362 | 23228 ft | 442 kts | 186° |
| 2026-05-05 19:26 | 48.44379 | 2.61233 | 23642 ft | 443 kts | 176° |
| 2026-05-05 19:26 | 48.41291 | 2.61483 | 24040 ft | 445 kts | 175° |
| 2026-05-05 19:26 | 48.38191 | 2.61771 | 24463 ft | 448 kts | 175° |
| 2026-05-05 19:27 | 48.35082 | 2.62180 | 24847 ft | 449 kts | 170° |
| 2026-05-05 19:27 | 48.32037 | 2.63237 | 25239 ft | 450 kts | 162° |
| 2026-05-05 19:27 | 48.29063 | 2.64759 | 25615 ft | 452 kts | 159° |
| 2026-05-05 19:27 | 48.26134 | 2.66498 | 25983 ft | 454 kts | 156° |
| 2026-05-05 19:28 | 48.23216 | 2.68365 | 26361 ft | 457 kts | 155° |
| 2026-05-05 19:28 | 48.20300 | 2.70283 | 26694 ft | 459 kts | 155° |
| 2026-05-05 19:28 | 48.17371 | 2.72215 | 26831 ft | 460 kts | 156° |
| 2026-05-05 19:28 | 48.14436 | 2.74137 | 26825 ft | 460 kts | 156° |
| 2026-05-05 19:29 | 48.11491 | 2.76043 | 26827 ft | 462 kts | 156° |
| 2026-05-05 19:29 | 48.08527 | 2.77946 | 26816 ft | 464 kts | 156° |
| 2026-05-05 19:29 | 48.05561 | 2.79837 | 26831 ft | 464 kts | 156° |
| 2026-05-05 19:29 | 48.02589 | 2.81723 | 26831 ft | 464 kts | 156° |
| 2026-05-05 19:30 | 47.99615 | 2.83607 | 26834 ft | 464 kts | 156° |
| 2026-05-05 19:30 | 47.96643 | 2.85486 | 26821 ft | 464 kts | 157° |
| 2026-05-05 19:30 | 47.93671 | 2.87364 | 26831 ft | 463 kts | 157° |
| 2026-05-05 19:30 | 47.90703 | 2.89237 | 26822 ft | 463 kts | 157° |
| 2026-05-05 19:31 | 47.87736 | 2.91109 | 26825 ft | 462 kts | 157° |
| 2026-05-05 19:31 | 47.84776 | 2.92973 | 26846 ft | 462 kts | 157° |
| 2026-05-05 19:31 | 47.81815 | 2.94836 | 26825 ft | 462 kts | 157° |
| 2026-05-05 19:31 | 47.78857 | 2.96696 | 26836 ft | 460 kts | 157° |
| 2026-05-05 19:32 | 47.75915 | 2.98543 | 26844 ft | 458 kts | 157° |
| 2026-05-05 19:32 | 47.72981 | 3.00383 | 26846 ft | 458 kts | 157° |
| 2026-05-05 19:32 | 47.70046 | 3.02222 | 26829 ft | 457 kts | 157° |
| 2026-05-05 19:32 | 47.67122 | 3.04051 | 26834 ft | 457 kts | 157° |
| 2026-05-05 19:33 | 47.64187 | 3.05884 | 26832 ft | 457 kts | 157° |
| 2026-05-05 19:33 | 47.61253 | 3.07715 | 26836 ft | 457 kts | 158° |
| 2026-05-05 19:33 | 47.58324 | 3.09541 | 26857 ft | 457 kts | 158° |
| 2026-05-05 19:33 | 47.55394 | 3.11365 | 26860 ft | 457 kts | 158° |
| 2026-05-05 19:34 | 47.52455 | 3.13192 | 26847 ft | 457 kts | 158° |
| 2026-05-05 19:34 | 47.49527 | 3.15011 | 26862 ft | 457 kts | 158° |
| 2026-05-05 19:34 | 47.46596 | 3.16829 | 26842 ft | 457 kts | 158° |
| 2026-05-05 19:35 | 47.40895 | 3.20362 | 26844 ft | 430 kts | 158° |
| 2026-05-05 19:35 | 47.38189 | 3.22035 | 26779 ft | 425 kts | 158° |
| 2026-05-05 19:35 | 47.35432 | 3.23737 | 26516 ft | 423 kts | 158° |
| 2026-05-05 19:35 | 47.32719 | 3.25410 | 26260 ft | 422 kts | 159° |
| 2026-05-05 19:36 | 47.30012 | 3.27077 | 26000 ft | 421 kts | 159° |
| 2026-05-05 19:36 | 47.27311 | 3.28738 | 25741 ft | 419 kts | 159° |
| 2026-05-05 19:36 | 47.24624 | 3.30389 | 25497 ft | 418 kts | 159° |
| 2026-05-05 19:36 | 47.21949 | 3.32031 | 25234 ft | 416 kts | 159° |
| 2026-05-05 19:37 | 47.19286 | 3.33664 | 24975 ft | 414 kts | 159° |
| 2026-05-05 19:37 | 47.16633 | 3.35288 | 24746 ft | 412 kts | 159° |
| 2026-05-05 19:37 | 47.13987 | 3.36907 | 24508 ft | 411 kts | 159° |
| 2026-05-05 19:37 | 47.11355 | 3.38516 | 24260 ft | 409 kts | 160° |
| 2026-05-05 19:38 | 47.08726 | 3.40121 | 24019 ft | 408 kts | 160° |
| 2026-05-05 19:38 | 47.06115 | 3.41713 | 23791 ft | 407 kts | 160° |
| 2026-05-05 19:38 | 47.03503 | 3.43304 | 23554 ft | 405 kts | 160° |
| 2026-05-05 19:38 | 47.00900 | 3.44888 | 23296 ft | 404 kts | 160° |
| 2026-05-05 19:39 | 46.98309 | 3.46462 | 23015 ft | 403 kts | 160° |
| 2026-05-05 19:39 | 46.95724 | 3.48031 | 22745 ft | 401 kts | 160° |
| 2026-05-05 19:39 | 46.93151 | 3.49593 | 22465 ft | 400 kts | 160° |
| 2026-05-05 19:39 | 46.90588 | 3.51146 | 22180 ft | 398 kts | 160° |
| 2026-05-05 19:40 | 46.88031 | 3.52694 | 21921 ft | 397 kts | 160° |
| 2026-05-05 19:40 | 46.85485 | 3.54233 | 21664 ft | 396 kts | 160° |
| 2026-05-05 19:40 | 46.82944 | 3.55769 | 21395 ft | 394 kts | 160° |
| 2026-05-05 19:40 | 46.80412 | 3.57296 | 21127 ft | 393 kts | 160° |
| 2026-05-05 19:41 | 46.77901 | 3.58810 | 20877 ft | 391 kts | 160° |
| 2026-05-05 19:41 | 46.75379 | 3.60329 | 20634 ft | 390 kts | 160° |
| 2026-05-05 19:41 | 46.72878 | 3.61835 | 20276 ft | 387 kts | 160° |
| 2026-05-05 19:41 | 46.70393 | 3.63314 | 19937 ft | 384 kts | 160° |
| 2026-05-05 19:42 | 46.67902 | 3.64732 | 19528 ft | 384 kts | 161° |
| 2026-05-05 19:42 | 46.65406 | 3.66107 | 19179 ft | 383 kts | 161° |
| 2026-05-05 19:42 | 46.62917 | 3.67458 | 18867 ft | 381 kts | 161° |
| 2026-05-05 19:42 | 46.60438 | 3.68797 | 18548 ft | 380 kts | 161° |
| 2026-05-05 19:43 | 46.57966 | 3.70135 | 18253 ft | 378 kts | 161° |
| 2026-05-05 19:43 | 46.55501 | 3.71472 | 17907 ft | 377 kts | 161° |
| 2026-05-05 19:43 | 46.53050 | 3.72804 | 17588 ft | 375 kts | 161° |
| 2026-05-05 19:43 | 46.50609 | 3.74133 | 17285 ft | 374 kts | 161° |
| 2026-05-05 19:44 | 46.48179 | 3.75456 | 16991 ft | 373 kts | 161° |
| 2026-05-05 19:44 | 46.45761 | 3.76784 | 16686 ft | 371 kts | 160° |
| 2026-05-05 19:44 | 46.43355 | 3.78164 | 16368 ft | 370 kts | 160° |
| 2026-05-05 19:44 | 46.40970 | 3.79550 | 16071 ft | 369 kts | 160° |
| 2026-05-05 19:45 | 46.38606 | 3.81012 | 15779 ft | 370 kts | 155° |
| 2026-05-05 19:45 | 46.36434 | 3.83037 | 15482 ft | 374 kts | 142° |
| 2026-05-05 19:45 | 46.34689 | 3.85844 | 15197 ft | 378 kts | 126° |
| 2026-05-05 19:45 | 46.33388 | 3.89144 | 14943 ft | 378 kts | 120° |
| 2026-05-05 19:46 | 46.32210 | 3.92546 | 14706 ft | 378 kts | 118° |
| 2026-05-05 19:46 | 46.31057 | 3.95960 | 14474 ft | 377 kts | 118° |
| 2026-05-05 19:46 | 46.29910 | 3.99362 | 14218 ft | 376 kts | 118° |
| 2026-05-05 19:46 | 46.28766 | 4.02752 | 13954 ft | 374 kts | 118° |
| 2026-05-05 19:47 | 46.27638 | 4.06085 | 13726 ft | 373 kts | 118° |
| 2026-05-05 19:47 | 46.26500 | 4.09442 | 13459 ft | 372 kts | 118° |
| 2026-05-05 19:47 | 46.25362 | 4.12791 | 13184 ft | 370 kts | 118° |
| 2026-05-05 19:47 | 46.24214 | 4.16168 | 12906 ft | 369 kts | 118° |
| 2026-05-05 19:48 | 46.23465 | 4.18367 | 12752 ft | 368 kts | 118° |
| 2026-05-05 19:48 | 46.21970 | 4.22749 | 12411 ft | 366 kts | 118° |
| 2026-05-05 19:48 | 46.20844 | 4.26046 | 12144 ft | 365 kts | 118° |
| 2026-05-05 19:48 | 46.20086 | 4.28264 | 11979 ft | 363 kts | 118° |
| 2026-05-05 19:49 | 46.18585 | 4.32388 | 11874 ft | 337 kts | 123° |
| 2026-05-05 19:49 | 46.17743 | 4.34261 | 11871 ft | 323 kts | 127° |
| 2026-05-05 19:49 | 46.16508 | 4.36849 | 11873 ft | 305 kts | 126° |
| 2026-05-05 19:49 | 46.15482 | 4.39495 | 11871 ft | 302 kts | 113° |
| 2026-05-05 19:50 | 46.15017 | 4.42455 | 11878 ft | 304 kts | 102° |
| 2026-05-05 19:50 | 46.14659 | 4.45460 | 11876 ft | 304 kts | 102° |
| 2026-05-05 19:50 | 46.14290 | 4.48473 | 11520 ft | 306 kts | 102° |
| 2026-05-05 19:50 | 46.13918 | 4.51480 | 11140 ft | 304 kts | 102° |
| 2026-05-05 19:51 | 46.13547 | 4.54465 | 10742 ft | 301 kts | 102° |
| 2026-05-05 19:51 | 46.13177 | 4.57421 | 10390 ft | 298 kts | 102° |
| 2026-05-05 19:51 | 46.12809 | 4.60355 | 9996 ft | 297 kts | 102° |
| 2026-05-05 19:51 | 46.12442 | 4.63277 | 9599 ft | 295 kts | 102° |
| 2026-05-05 19:52 | 46.12075 | 4.66178 | 9177 ft | 293 kts | 102° |
| 2026-05-05 19:52 | 46.11714 | 4.69017 | 8776 ft | 291 kts | 102° |
| 2026-05-05 19:52 | 46.11339 | 4.71922 | 8356 ft | 290 kts | 102° |
| 2026-05-05 19:52 | 46.10972 | 4.74729 | 7957 ft | 288 kts | 102° |
| 2026-05-05 19:53 | 46.10598 | 4.77556 | 7536 ft | 287 kts | 102° |
| 2026-05-05 19:53 | 46.10226 | 4.80371 | 7166 ft | 285 kts | 102° |
| 2026-05-05 19:53 | 46.09852 | 4.83165 | 6780 ft | 283 kts | 102° |
| 2026-05-05 19:53 | 46.09477 | 4.85937 | 6410 ft | 282 kts | 102° |
| 2026-05-05 19:54 | 46.09099 | 4.88699 | 6029 ft | 280 kts | 102° |
| 2026-05-05 19:54 | 46.08718 | 4.91439 | 5628 ft | 278 kts | 102° |
| 2026-05-05 19:54 | 46.08293 | 4.94147 | 5244 ft | 276 kts | 110° |
| 2026-05-05 19:54 | 46.07302 | 4.96459 | 4837 ft | 271 kts | 135° |
| 2026-05-05 19:55 | 46.05911 | 4.98276 | 4458 ft | 269 kts | 142° |
| 2026-05-05 19:55 | 46.04469 | 4.99973 | 4055 ft | 267 kts | 142° |
| 2026-05-05 19:55 | 46.03032 | 5.01645 | 3746 ft | 263 kts | 142° |
| 2026-05-05 19:55 | 46.01640 | 5.03264 | 3575 ft | 252 kts | 142° |
| 2026-05-05 19:56 | 46.00308 | 5.04804 | 3407 ft | 239 kts | 145° |
| 2026-05-05 19:56 | 45.98871 | 5.05860 | 3067 ft | 229 kts | 164° |
| 2026-05-05 19:56 | 45.97321 | 5.06286 | 3008 ft | 226 kts | 175° |
| 2026-05-05 19:56 | 45.95755 | 5.06468 | 2998 ft | 227 kts | 177° |
| 2026-05-05 19:57 | 45.94172 | 5.06646 | 2990 ft | 228 kts | 176° |
| 2026-05-05 19:57 | 45.92592 | 5.06835 | 2991 ft | 228 kts | 176° |
| 2026-05-05 19:57 | 45.91029 | 5.07030 | 2977 ft | 218 kts | 176° |
| 2026-05-05 19:57 | 45.89579 | 5.07217 | 2989 ft | 200 kts | 176° |
| 2026-05-05 19:58 | 45.88245 | 5.07389 | 2991 ft | 188 kts | 176° |
| 2026-05-05 19:58 | 45.86949 | 5.07549 | 2992 ft | 186 kts | 177° |
| 2026-05-05 19:58 | 45.85657 | 5.07705 | 2992 ft | 186 kts | 177° |
| 2026-05-05 19:58 | 45.84372 | 5.07859 | 2957 ft | 185 kts | 177° |
| 2026-05-05 19:59 | 45.83097 | 5.08014 | 2749 ft | 183 kts | 176° |
| 2026-05-05 19:59 | 45.81831 | 5.08169 | 2480 ft | 182 kts | 176° |
| 2026-05-05 19:59 | 45.80606 | 5.08319 | 2218 ft | 170 kts | 176° |
| 2026-05-05 19:59 | 45.79468 | 5.08459 | 1990 ft | 158 kts | 176° |
| 2026-05-05 20:00 | 45.78435 | 5.08585 | 1789 ft | 141 kts | 176° |
| 2026-05-05 20:00 | 45.77495 | 5.08700 | 1605 ft | 132 kts | 175° |
| 2026-05-05 20:00 | 45.76581 | 5.08811 | 1431 ft | 132 kts | 175° |
| 2026-05-05 20:00 | 45.75668 | 5.08922 | 1271 ft | 131 kts | 175° |
| 2026-05-05 20:01 | 45.74757 | 5.09026 | 1078 ft | 131 kts | 175° |
| 2026-05-05 20:01 | 45.73859 | 5.09140 | 899 ft | 129 kts | 174° |
| 2026-05-05 20:01 | 45.73001 | 5.09250 | 801 ft | 111 kts | 175° |
| 2026-05-05 20:01 | 45.72429 | 5.09320 | 812 ft | 54 kts | 175° |
| 2026-05-05 20:02 | 45.72184 | 5.09315 | 819 ft | 30 kts | 192° |
| 2026-05-05 20:02 | 45.72006 | 5.09208 | 814 ft | 19 kts | 226° |
| 2026-05-05 20:02 | 45.71984 | 5.09093 | 810 ft | 0 kts | 265° |
| 2026-05-05 20:05 | 45.71979 | 5.09019 | 813 ft | 18 kts | 264° |
| 2026-05-05 20:05 | 45.71965 | 5.08829 | 813 ft | 20 kts | 264° |
| 2026-05-05 20:05 | 45.71954 | 5.08667 | 811 ft | 9 kts | 264° |
| 2026-05-05 20:06 | 45.71951 | 5.08626 | 810 ft | 6 kts | 265° |
| 2026-05-05 20:06 | 45.71947 | 5.08554 | 808 ft | 0 kts | 265° |
| 2026-05-05 20:06 | 45.71946 | 5.08536 | 807 ft | 4 kts | 265° |
| 2026-05-05 20:06 | 45.71947 | 5.08461 | 806 ft | 10 kts | 273° |
| 2026-05-05 20:07 | 45.71963 | 5.08347 | 803 ft | 14 kts | 283° |
| 2026-05-05 20:07 | 45.71953 | 5.08239 | 805 ft | 13 kts | 223° |
| 2026-05-05 20:07 | 45.71869 | 5.08197 | 801 ft | 8 kts | 199° |
| 2026-05-05 20:07 | 45.71864 | 5.08178 | 801 ft | 2 kts | 266° |
| 2026-05-05 20:08 | 45.71853 | 5.08148 | 800 ft | 5 kts | 251° |
| 2026-05-05 20:08 | 45.71859 | 5.08108 | 800 ft | 1 kts | 294° |
| 2026-05-05 20:08 | 45.71863 | 5.08098 | 800 ft | 0 kts | 298° |